^^
Station Historical Data
 
Daily Summary for April 26, 2017 Units:  English    Metric   Both
« Previous Day
Next Day »
Daily Weekly Monthly Yearly Custom
  Current: High: Low: Average:
Temperature: 54.1 °F 61.4 °F 54.1 °F 59 °F
Dew Point: 53.3 °F 60.5 °F 53.3 °F 58.1 °F
Humidity: 97% 98% 97% 97%
Wind Speed: 0.0mph 0.0mph 0.0mph 0mph
Wind Gust: 0.0mph 0.0mph - -
WindCalm - - North
Pressure: 29.90 in 29.91 in 29.88 in -
Precipitation: 0.00 in      
Historical Graphs
 
 
Tabular Data for April 26, 2017
Time Temperature Dew Point Pressure Wind Wind Speed Wind Gust Humidity Rainfall Rate (Hourly) solar Conditions
00:02 61.4 °F 60.5 °F 29.91 in Calm     97% 0.00 in WeatherDisplay:10.37 W/m2 RA
00:07 61.3 °F 60.4 °F 29.91 in Calm     97% 0.00 in WeatherDisplay:10.37 W/m2 RA
00:12 61.3 °F 60.4 °F 29.91 in Calm     97% 0.00 in WeatherDisplay:10.37 W/m2 CLR
00:17 61.3 °F 60.4 °F 29.91 in Calm     97% 0.00 in WeatherDisplay:10.37 W/m2 CLR
00:22 61.3 °F 60.4 °F 29.91 in Calm     97% 0.00 in WeatherDisplay:10.37 W/m2 CLR
00:27 61.3 °F 60.4 °F 29.91 in Calm     97% 0.00 in WeatherDisplay:10.37 W/m2 CLR
00:32 61.3 °F 60.4 °F 29.91 in Calm     97% 0.00 in WeatherDisplay:10.37 W/m2 CLR
00:37 61.3 °F 60.4 °F 29.91 in Calm     97% 0.00 in WeatherDisplay:10.37 W/m2 CLR
00:42 61.2 °F 60.3 °F 29.91 in Calm     97% 0.00 in WeatherDisplay:10.37 W/m2 CLR
00:47 61.2 °F 60.3 °F 29.91 in Calm     97% 0.00 in WeatherDisplay:10.37 W/m2 CLR
00:52 61.2 °F 60.3 °F 29.91 in Calm     97% 0.00 in WeatherDisplay:10.37 W/m2 CLR
00:57 61.2 °F 60.3 °F 29.91 in Calm     97% 0.00 in WeatherDisplay:10.37 W/m2 CLR
01:02 61.2 °F 60.3 °F 29.91 in Calm     97% 0.00 in WeatherDisplay:10.37 W/m2 CLR
01:07 61.2 °F 60.3 °F 29.91 in Calm     97% 0.00 in WeatherDisplay:10.37 W/m2 CLR
01:08 61.2 °F 60.3 °F 29.91 in Calm     97% 0.00 in WeatherDisplay:10.37 W/m2 CLR
01:13 61.2 °F 60.3 °F 29.91 in Calm     97% 0.00 in WeatherDisplay:10.37 W/m2 CLR
01:18 61.2 °F 60.3 °F 29.91 in Calm     97% 0.00 in WeatherDisplay:10.37 W/m2 CLR
01:23 61.2 °F 60.3 °F 29.91 in Calm     97% 0.00 in WeatherDisplay:10.37 W/m2 CLR
01:28 61.2 °F 60.3 °F 29.91 in Calm     97% 0.00 in WeatherDisplay:10.37 W/m2 CLR
01:33 61.2 °F 60.3 °F 29.91 in Calm     97% 0.00 in WeatherDisplay:10.37 W/m2 CLR
01:38 61.2 °F 60.3 °F 29.91 in Calm     97% 0.00 in WeatherDisplay:10.37 W/m2 CLR
01:43 61.2 °F 60.3 °F 29.91 in Calm     97% 0.00 in WeatherDisplay:10.37 W/m2 CLR
01:48 61.1 °F 60.2 °F 29.91 in Calm     97% 0.00 in WeatherDisplay:10.37 W/m2 CLR
01:53 61.1 °F 60.2 °F 29.90 in Calm     97% 0.00 in WeatherDisplay:10.37 W/m2 CLR
01:58 61.1 °F 60.2 °F 29.90 in Calm     97% 0.00 in WeatherDisplay:10.37 W/m2 CLR
02:03 61.1 °F 60.2 °F 29.90 in Calm     97% 0.00 in WeatherDisplay:10.37 W/m2 CLR
02:08 61.0 °F 60.1 °F 29.90 in Calm     97% 0.00 in WeatherDisplay:10.37 W/m2 CLR
02:13 61.0 °F 60.4 °F 29.90 in Calm     98% 0.00 in WeatherDisplay:10.37 W/m2 CLR
02:18 61.0 °F 60.4 °F 29.90 in Calm     98% 0.00 in WeatherDisplay:10.37 W/m2 CLR
02:23 60.9 °F 60.3 °F 29.89 in Calm     98% 0.00 in WeatherDisplay:10.37 W/m2 CLR
02:28 60.9 °F 60.3 °F 29.89 in Calm     98% 0.00 in WeatherDisplay:10.37 W/m2 CLR
02:33 60.8 °F 60.2 °F 29.89 in Calm     98% 0.00 in WeatherDisplay:10.37 W/m2 CLR
02:38 60.7 °F 59.8 °F 29.89 in Calm     97% 0.00 in WeatherDisplay:10.37 W/m2 CLR
02:43 60.5 °F 59.6 °F 29.89 in Calm     97% 0.00 in WeatherDisplay:10.37 W/m2 CLR
02:48 60.3 °F 59.4 °F 29.89 in Calm     97% 0.00 in WeatherDisplay:10.37 W/m2 CLR
02:53 60.1 °F 59.2 °F 29.89 in Calm     97% 0.00 in WeatherDisplay:10.37 W/m2 CLR
02:58 59.8 °F 58.9 °F 29.89 in Calm     97% 0.00 in WeatherDisplay:10.37 W/m2 CLR
03:03 59.6 °F 58.7 °F 29.89 in Calm     97% 0.00 in WeatherDisplay:10.37 W/m2 CLR
03:08 59.4 °F 58.5 °F 29.88 in Calm     97% 0.00 in WeatherDisplay:10.37 W/m2 CLR
03:13 59.1 °F 58.2 °F 29.88 in Calm     97% 0.00 in WeatherDisplay:10.37 W/m2 CLR
03:18 58.8 °F 58.0 °F 29.88 in Calm     97% 0.00 in WeatherDisplay:10.37 W/m2 CLR
03:23 58.5 °F 57.7 °F 29.88 in Calm     97% 0.00 in WeatherDisplay:10.37 W/m2 CLR
03:28 58.4 °F 57.6 °F 29.88 in Calm     97% 0.00 in WeatherDisplay:10.37 W/m2 CLR
03:33 58.2 °F 57.4 °F 29.88 in Calm     97% 0.00 in WeatherDisplay:10.37 W/m2 CLR
03:38 58.2 °F 57.4 °F 29.88 in Calm     97% 0.00 in WeatherDisplay:10.37 W/m2 CLR
03:43 58.2 °F 57.4 °F 29.88 in Calm     97% 0.00 in WeatherDisplay:10.37 W/m2 CLR
03:48 58.1 °F 57.3 °F 29.88 in Calm     97% 0.00 in WeatherDisplay:10.37 W/m2 CLR
03:53 58.0 °F 57.2 °F 29.88 in Calm     97% 0.00 in WeatherDisplay:10.37 W/m2 CLR
03:58 57.9 °F 57.1 °F 29.88 in Calm     97% 0.00 in WeatherDisplay:10.37 W/m2 CLR
03:59 57.9 °F 57.1 °F 29.88 in Calm     97% 0.00 in WeatherDisplay:10.37 W/m2 CLR
04:04 57.7 °F 56.9 °F 29.88 in Calm     97% 0.00 in WeatherDisplay:10.37 W/m2 CLR
04:09 57.5 °F 56.7 °F 29.88 in Calm     97% 0.00 in WeatherDisplay:10.37 W/m2 CLR
04:14 57.3 °F 56.5 °F 29.88 in Calm     97% 0.00 in WeatherDisplay:10.37 W/m2 CLR
04:19 57.1 °F 56.3 °F 29.88 in Calm     97% 0.00 in WeatherDisplay:10.37 W/m2 CLR
04:24 56.9 °F 56.1 °F 29.88 in Calm     97% 0.00 in WeatherDisplay:10.37 W/m2 CLR
04:29 56.7 °F 55.9 °F 29.88 in Calm     97% 0.00 in WeatherDisplay:10.37 W/m2 CLR
04:34 56.5 °F 55.7 °F 29.89 in Calm     97% 0.00 in WeatherDisplay:10.37 W/m2 CLR
04:39 56.3 °F 55.5 °F 29.89 in Calm     97% 0.00 in WeatherDisplay:10.37 W/m2 CLR
04:44 56.1 °F 55.3 °F 29.89 in Calm     97% 0.00 in WeatherDisplay:10.37 W/m2 CLR
04:49 56.0 °F 55.2 °F 29.89 in Calm     97% 0.00 in WeatherDisplay:10.37 W/m2 CLR
04:54 55.9 °F 55.1 °F 29.89 in Calm     97% 0.00 in WeatherDisplay:10.37 W/m2 CLR
04:59 55.7 °F 54.9 °F 29.89 in Calm     97% 0.00 in WeatherDisplay:10.37 W/m2 CLR
05:04 55.5 °F 54.7 °F 29.89 in Calm     97% 0.00 in WeatherDisplay:10.37 W/m2 CLR
05:09 55.3 °F 54.5 °F 29.89 in Calm     97% 0.00 in WeatherDisplay:10.37 W/m2 CLR
05:14 55.1 °F 54.3 °F 29.89 in Calm     97% 0.00 in WeatherDisplay:10.37 W/m2 CLR
05:19 55.0 °F 54.2 °F 29.89 in Calm     97% 0.00 in WeatherDisplay:10.37 W/m2 CLR
05:24 54.9 °F 54.1 °F 29.90 in Calm     97% 0.00 in WeatherDisplay:10.37 W/m2 CLR
05:29 54.7 °F 53.9 °F 29.90 in Calm     97% 0.00 in WeatherDisplay:10.37 W/m2 CLR
05:34 54.5 °F 53.7 °F 29.90 in Calm     97% 0.00 in WeatherDisplay:10.37 W/m2 CLR
05:39 54.4 °F 53.6 °F 29.90 in Calm     97% 0.00 in WeatherDisplay:10.37 W/m2 CLR
05:44 54.2 °F 53.4 °F 29.90 in Calm     97% 0.00 in WeatherDisplay:10.37 W/m2 CLR
05:49 54.1 °F 53.3 °F 29.90 in Calm     97% 0.00 in WeatherDisplay:10.37 W/m2 CLR
Gayle H. Riggsbee Observatory (GHRO)
Compliments of Weather Underground - 1.25 mb